sensor_id;sensor_type;location;lat;lon;timestamp;pressure;altitude;pressure_sealevel;temperature;humidity
10310;BME280;5200;43.236;27.986;2023-05-10T00:01:00;100650.94;;;6.62;100.00
10310;BME280;5200;43.236;27.986;2023-05-10T00:03:27;100648.31;;;6.62;100.00
10310;BME280;5200;43.236;27.986;2023-05-10T00:05:56;100604.56;;;6.37;100.00
10310;BME280;5200;43.236;27.986;2023-05-10T00:08:22;100635.31;;;6.60;100.00
10310;BME280;5200;43.236;27.986;2023-05-10T00:10:50;100612.13;;;6.41;100.00
10310;BME280;5200;43.236;27.986;2023-05-10T00:13:17;100632.09;;;6.56;100.00
10310;BME280;5200;43.236;27.986;2023-05-10T00:15:44;100622.19;;;6.47;100.00
10310;BME280;5200;43.236;27.986;2023-05-10T00:18:10;100617.34;;;6.41;100.00
10310;BME280;5200;43.236;27.986;2023-05-10T00:20:37;100632.38;;;6.52;100.00
10310;BME280;5200;43.236;27.986;2023-05-10T00:23:05;100617.53;;;6.38;100.00
10310;BME280;5200;43.236;27.986;2023-05-10T00:25:32;100622.56;;;6.41;100.00
10310;BME280;5200;43.236;27.986;2023-05-10T00:27:59;100615.84;;;6.37;100.00
10310;BME280;5200;43.236;27.986;2023-05-10T00:30:27;100592.06;;;6.27;100.00
10310;BME280;5200;43.236;27.986;2023-05-10T00:32:53;100623.22;;;6.45;100.00
10310;BME280;5200;43.236;27.986;2023-05-10T00:35:20;100640.22;;;6.52;100.00
10310;BME280;5200;43.236;27.986;2023-05-10T00:37:48;100630.88;;;6.48;100.00
10310;BME280;5200;43.236;27.986;2023-05-10T00:40:16;100633.13;;;6.54;100.00
10310;BME280;5200;43.236;27.986;2023-05-10T00:42:43;100607.28;;;6.35;100.00
10310;BME280;5200;43.236;27.986;2023-05-10T00:45:12;100630.38;;;6.55;100.00
10310;BME280;5200;43.236;27.986;2023-05-10T00:47:39;100632.25;;;6.53;100.00
10310;BME280;5200;43.236;27.986;2023-05-10T00:50:07;100603.72;;;6.36;100.00
10310;BME280;5200;43.236;27.986;2023-05-10T00:52:35;100607.19;;;6.37;100.00
10310;BME280;5200;43.236;27.986;2023-05-10T00:55:02;100603.72;;;6.36;100.00
10310;BME280;5200;43.236;27.986;2023-05-10T00:57:31;100616.72;;;6.38;100.00
10310;BME280;5200;43.236;27.986;2023-05-10T00:59:58;100614.19;;;6.36;100.00
10310;BME280;5200;43.236;27.986;2023-05-10T01:02:25;100580.59;;;6.16;100.00
10310;BME280;5200;43.236;27.986;2023-05-10T01:04:52;100623.22;;;6.45;100.00
10310;BME280;5200;43.236;27.986;2023-05-10T01:07:19;100574.53;;;6.15;100.00
10310;BME280;5200;43.236;27.986;2023-05-10T01:09:46;100588.00;;;6.23;100.00
10310;BME280;5200;43.236;27.986;2023-05-10T01:12:14;100621.38;;;6.47;100.00
10310;BME280;5200;43.236;27.986;2023-05-10T01:14:42;100620.50;;;6.46;100.00
10310;BME280;5200;43.236;27.986;2023-05-10T01:17:10;100623.22;;;6.45;100.00
10310;BME280;5200;43.236;27.986;2023-05-10T01:19:38;100618.19;;;6.42;100.00
10310;BME280;5200;43.236;27.986;2023-05-10T01:22:19;100622.47;;;6.43;100.00
10310;BME280;5200;43.236;27.986;2023-05-10T01:25:07;100625.84;;;6.45;100.00
10310;BME280;5200;43.236;27.986;2023-05-10T01:27:59;100624.06;;;6.45;100.00
10310;BME280;5200;43.236;27.986;2023-05-10T01:30:40;100593.00;;;6.26;100.00
10310;BME280;5200;43.236;27.986;2023-05-10T01:33:18;100620.69;;;6.43;100.00
10310;BME280;5200;43.236;27.986;2023-05-10T01:35:51;100589.75;;;6.23;100.00
10310;BME280;5200;43.236;27.986;2023-05-10T01:38:25;100582.09;;;6.20;100.00
10310;BME280;5200;43.236;27.986;2023-05-10T01:41:01;100589.09;;;6.19;100.00
10310;BME280;5200;43.236;27.986;2023-05-10T01:43:39;100594.03;;;6.24;100.00
10310;BME280;5200;43.236;27.986;2023-05-10T01:46:12;100616.44;;;6.42;100.00
10310;BME280;5200;43.236;27.986;2023-05-10T01:48:47;100603.06;;;6.32;100.00
10310;BME280;5200;43.236;27.986;2023-05-10T01:51:18;100618.19;;;6.42;100.00
10310;BME280;5200;43.236;27.986;2023-05-10T01:53:47;100612.53;;;6.35;100.00
10310;BME280;5200;43.236;27.986;2023-05-10T01:56:15;100599.72;;;6.30;100.00
10310;BME280;5200;43.236;27.986;2023-05-10T01:58:44;100586.84;;;6.13;100.00
10310;BME280;5200;43.236;27.986;2023-05-10T02:01:14;100618.75;;;6.32;100.00
10310;BME280;5200;43.236;27.986;2023-05-10T02:03:43;100590.03;;;6.18;100.00
10310;BME280;5200;43.236;27.986;2023-05-10T02:06:12;100618.56;;;6.35;100.00
10310;BME280;5200;43.236;27.986;2023-05-10T02:08:41;100605.13;;;6.27;100.00
10310;BME280;5200;43.236;27.986;2023-05-10T02:11:12;100612.88;;;6.29;100.00
10310;BME280;5200;43.236;27.986;2023-05-10T02:13:41;100611.84;;;6.31;100.00
10310;BME280;5200;43.236;27.986;2023-05-10T02:16:09;100578.66;;;6.05;100.00
10310;BME280;5200;43.236;27.986;2023-05-10T02:18:37;100596.47;;;6.12;100.00
10310;BME280;5200;43.236;27.986;2023-05-10T02:21:08;100602.16;;;6.19;100.00
10310;BME280;5200;43.236;27.986;2023-05-10T02:23:37;100572.16;;;5.98;100.00
10310;BME280;5200;43.236;27.986;2023-05-10T02:26:05;100575.31;;;6.03;100.00
10310;BME280;5200;43.236;27.986;2023-05-10T02:28:33;100616.63;;;6.25;100.00
10310;BME280;5200;43.236;27.986;2023-05-10T02:31:03;100631.25;;;6.27;100.00
10310;BME280;5200;43.236;27.986;2023-05-10T02:33:31;100620.81;;;6.27;100.00
10310;BME280;5200;43.236;27.986;2023-05-10T02:35:59;100622.50;;;6.28;100.00
10310;BME280;5200;43.236;27.986;2023-05-10T02:38:28;100606.66;;;6.17;100.00
10310;BME280;5200;43.236;27.986;2023-05-10T02:40:55;100604.66;;;6.21;100.00
10310;BME280;5200;43.236;27.986;2023-05-10T02:43:22;100618.94;;;6.29;100.00
10310;BME280;5200;43.236;27.986;2023-05-10T02:45:50;100596.28;;;6.16;100.00
10310;BME280;5200;43.236;27.986;2023-05-10T02:48:17;100605.53;;;6.21;100.00
10310;BME280;5200;43.236;27.986;2023-05-10T02:50:45;100611.19;;;6.28;100.00
10310;BME280;5200;43.236;27.986;2023-05-10T02:53:20;100592.09;;;6.13;100.00
10310;BME280;5200;43.236;27.986;2023-05-10T02:55:52;100624.44;;;6.39;100.00
10310;BME280;5200;43.236;27.986;2023-05-10T02:58:19;100618.75;;;6.47;100.00
10310;BME280;5200;43.236;27.986;2023-05-10T03:00:46;100619.09;;;6.55;100.00
10310;BME280;5200;43.236;27.986;2023-05-10T03:03:13;100602.44;;;6.70;100.00
10310;BME280;5200;43.236;27.986;2023-05-10T03:05:40;100620.13;;;6.94;100.00
10310;BME280;5200;43.236;27.986;2023-05-10T03:08:07;100600.16;;;6.78;100.00
10310;BME280;5200;43.236;27.986;2023-05-10T03:10:40;100602.03;;;6.76;100.00
10310;BME280;5200;43.236;27.986;2023-05-10T03:13:14;100622.16;;;6.89;100.00
10310;BME280;5200;43.236;27.986;2023-05-10T03:15:48;100598.28;;;6.81;100.00
10310;BME280;5200;43.236;27.986;2023-05-10T03:18:22;100635.75;;;7.08;100.00
10310;BME280;5200;43.236;27.986;2023-05-10T03:20:50;100583.03;;;6.87;100.00
10310;BME280;5200;43.236;27.986;2023-05-10T03:23:25;100633.59;;;7.28;100.00
10310;BME280;5200;43.236;27.986;2023-05-10T03:25:53;100635.19;;;7.43;100.00
10310;BME280;5200;43.236;27.986;2023-05-10T03:28:25;100607.34;;;7.80;100.00
10310;BME280;5200;43.236;27.986;2023-05-10T03:30:53;100637.75;;;8.71;100.00
10310;BME280;5200;43.236;27.986;2023-05-10T03:33:20;100619.41;;;9.30;100.00
10310;BME280;5200;43.236;27.986;2023-05-10T03:35:47;100582.59;;;9.66;100.00
10310;BME280;5200;43.236;27.986;2023-05-10T03:38:14;100613.81;;;10.49;100.00
10310;BME280;5200;43.236;27.986;2023-05-10T03:40:41;100624.72;;;10.88;100.00
10310;BME280;5200;43.236;27.986;2023-05-10T03:43:08;100632.81;;;11.29;100.00
10310;BME280;5200;43.236;27.986;2023-05-10T03:45:36;100624.78;;;11.30;100.00
10310;BME280;5200;43.236;27.986;2023-05-10T03:48:03;100597.63;;;11.30;100.00
10310;BME280;5200;43.236;27.986;2023-05-10T03:50:30;100638.09;;;11.71;100.00
10310;BME280;5200;43.236;27.986;2023-05-10T03:52:57;100647.75;;;11.81;100.00
10310;BME280;5200;43.236;27.986;2023-05-10T03:55:24;100629.56;;;11.78;100.00
10310;BME280;5200;43.236;27.986;2023-05-10T03:57:51;100643.69;;;11.98;100.00
10310;BME280;5200;43.236;27.986;2023-05-10T04:00:19;100613.91;;;11.87;100.00
10310;BME280;5200;43.236;27.986;2023-05-10T04:02:47;100643.94;;;12.16;100.00
10310;BME280;5200;43.236;27.986;2023-05-10T04:05:14;100650.06;;;12.26;100.00
10310;BME280;5200;43.236;27.986;2023-05-10T04:07:41;100638.72;;;12.36;100.00
10310;BME280;5200;43.236;27.986;2023-05-10T04:10:10;100622.63;;;12.39;100.00
10310;BME280;5200;43.236;27.986;2023-05-10T04:12:37;100634.03;;;12.39;100.00
10310;BME280;5200;43.236;27.986;2023-05-10T04:15:04;100609.75;;;12.15;100.00
10310;BME280;5200;43.236;27.986;2023-05-10T04:17:32;100613.66;;;12.20;100.00
10310;BME280;5200;43.236;27.986;2023-05-10T04:20:01;100616.84;;;12.14;100.00
10310;BME280;5200;43.236;27.986;2023-05-10T04:22:30;100639.84;;;12.33;100.00
10310;BME280;5200;43.236;27.986;2023-05-10T04:24:56;100612.28;;;12.16;100.00
10310;BME280;5200;43.236;27.986;2023-05-10T04:27:23;100629.28;;;12.33;100.00
10310;BME280;5200;43.236;27.986;2023-05-10T04:29:50;100635.41;;;12.43;100.00
10310;BME280;5200;43.236;27.986;2023-05-10T04:32:17;100643.09;;;12.56;100.00
10310;BME280;5200;43.236;27.986;2023-05-10T04:34:44;100641.03;;;12.69;100.00
10310;BME280;5200;43.236;27.986;2023-05-10T04:37:12;100650.25;;;12.85;100.00
10310;BME280;5200;43.236;27.986;2023-05-10T04:39:39;100634.41;;;12.85;100.00
10310;BME280;5200;43.236;27.986;2023-05-10T04:42:06;100660.28;;;12.91;100.00
10310;BME280;5200;43.236;27.986;2023-05-10T04:44:33;100642.16;;;12.77;100.00
10310;BME280;5200;43.236;27.986;2023-05-10T04:47:00;100641.88;;;12.70;100.00
10310;BME280;5200;43.236;27.986;2023-05-10T04:49:27;100626.72;;;12.22;100.00
10310;BME280;5200;43.236;27.986;2023-05-10T04:51:54;100608.28;;;11.91;100.00
10310;BME280;5200;43.236;27.986;2023-05-10T04:54:23;100643.66;;;12.19;100.00
10310;BME280;5200;43.236;27.986;2023-05-10T04:56:50;100649.53;;;12.23;100.00
10310;BME280;5200;43.236;27.986;2023-05-10T04:59:17;100639.22;;;12.20;100.00
10310;BME280;5200;43.236;27.986;2023-05-10T05:01:43;100620.59;;;12.12;100.00
10310;BME280;5200;43.236;27.986;2023-05-10T05:04:10;100648.75;;;12.42;100.00
10310;BME280;5200;43.236;27.986;2023-05-10T05:06:37;100625.38;;;12.27;100.00
10310;BME280;5200;43.236;27.986;2023-05-10T05:09:04;100629.41;;;12.32;100.00
10310;BME280;5200;43.236;27.986;2023-05-10T05:11:32;100643.97;;;12.26;100.00
10310;BME280;5200;43.236;27.986;2023-05-10T05:13:59;100610.25;;;11.99;100.00
10310;BME280;5200;43.236;27.986;2023-05-10T05:16:26;100642.59;;;12.32;100.00
10310;BME280;5200;43.236;27.986;2023-05-10T05:18:53;100605.09;;;12.28;100.00
10310;BME280;5200;43.236;27.986;2023-05-10T05:21:20;100639.66;;;12.65;100.00
10310;BME280;5200;43.236;27.986;2023-05-10T05:23:46;100589.59;;;12.44;100.00
10310;BME280;5200;43.236;27.986;2023-05-10T05:26:13;100639.66;;;12.65;100.00
10310;BME280;5200;43.236;27.986;2023-05-10T05:28:41;100603.00;;;12.22;100.00
10310;BME280;5200;43.236;27.986;2023-05-10T05:31:08;100657.09;;;12.47;100.00
10310;BME280;5200;43.236;27.986;2023-05-10T05:33:35;100638.53;;;12.58;100.00
10310;BME280;5200;43.236;27.986;2023-05-10T05:36:03;100643.25;;;12.64;100.00
10310;BME280;5200;43.236;27.986;2023-05-10T05:38:31;100630.16;;;12.53;100.00
10310;BME280;5200;43.236;27.986;2023-05-10T05:40:58;100647.97;;;12.51;100.00
10310;BME280;5200;43.236;27.986;2023-05-10T05:43:24;100643.16;;;12.25;100.00
10310;BME280;5200;43.236;27.986;2023-05-10T05:45:53;100661.78;;;12.34;100.00
10310;BME280;5200;43.236;27.986;2023-05-10T05:48:20;100649.53;;;12.23;100.00
10310;BME280;5200;43.236;27.986;2023-05-10T05:50:47;100619.41;;;12.25;100.00
10310;BME280;5200;43.236;27.986;2023-05-10T05:53:15;100662.91;;;12.41;100.00
10310;BME280;5200;43.236;27.986;2023-05-10T05:55:51;100631.16;;;12.12;100.00
10310;BME280;5200;43.236;27.986;2023-05-10T05:58:17;100655.63;;;12.23;100.00
10310;BME280;5200;43.236;27.986;2023-05-10T06:00:44;100631.97;;;12.12;100.00
10310;BME280;5200;43.236;27.986;2023-05-10T06:03:12;100629.81;;;12.27;100.00
10310;BME280;5200;43.236;27.986;2023-05-10T06:05:39;100624.06;;;12.62;100.00
10310;BME280;5200;43.236;27.986;2023-05-10T06:08:06;100642.63;;;13.01;100.00
10310;BME280;5200;43.236;27.986;2023-05-10T06:10:33;100629.69;;;12.98;100.00
10310;BME280;5200;43.236;27.986;2023-05-10T06:13:00;100670.78;;;12.81;100.00
10310;BME280;5200;43.236;27.986;2023-05-10T06:15:27;100652.53;;;12.49;100.00
10310;BME280;5200;43.236;27.986;2023-05-10T06:17:54;100657.56;;;12.21;100.00
10310;BME280;5200;43.236;27.986;2023-05-10T06:20:22;100658.25;;;12.54;100.00
10310;BME280;5200;43.236;27.986;2023-05-10T06:22:49;100663.56;;;12.74;100.00
10310;BME280;5200;43.236;27.986;2023-05-10T06:25:16;100661.50;;;12.77;100.00
10310;BME280;5200;43.236;27.986;2023-05-10T06:27:44;100654.00;;;12.92;100.00
10310;BME280;5200;43.236;27.986;2023-05-10T06:30:11;100658.88;;;13.06;100.00
10310;BME280;5200;43.236;27.986;2023-05-10T06:32:40;100643.75;;;13.08;100.00
10310;BME280;5200;43.236;27.986;2023-05-10T06:35:07;100657.66;;;13.20;100.00
10310;BME280;5200;43.236;27.986;2023-05-10T06:37:36;100625.38;;;13.17;100.00
10310;BME280;5200;43.236;27.986;2023-05-10T06:40:03;100657.69;;;13.30;100.00
10310;BME280;5200;43.236;27.986;2023-05-10T06:42:30;100647.50;;;13.16;100.00
10310;BME280;5200;43.236;27.986;2023-05-10T06:44:57;100658.50;;;13.30;100.00
10310;BME280;5200;43.236;27.986;2023-05-10T06:47:24;100655.72;;;13.13;100.00
10310;BME280;5200;43.236;27.986;2023-05-10T06:49:51;100634.41;;;12.95;99.26
10310;BME280;5200;43.236;27.986;2023-05-10T06:52:17;100651.38;;;12.92;100.00
10310;BME280;5200;43.236;27.986;2023-05-10T06:54:46;100649.72;;;12.91;100.00
10310;BME280;5200;43.236;27.986;2023-05-10T06:57:12;100641.59;;;12.63;100.00
10310;BME280;5200;43.236;27.986;2023-05-10T06:59:39;100673.38;;;12.52;100.00
10310;BME280;5200;43.236;27.986;2023-05-10T07:02:06;100650.78;;;12.79;100.00
10310;BME280;5200;43.236;27.986;2023-05-10T07:04:33;100659.50;;;13.29;100.00
10310;BME280;5200;43.236;27.986;2023-05-10T07:07:00;100633.75;;;13.41;100.00
10310;BME280;5200;43.236;27.986;2023-05-10T07:09:26;100624.44;;;13.37;98.83
10310;BME280;5200;43.236;27.986;2023-05-10T07:11:55;100664.47;;;13.42;100.00
10310;BME280;5200;43.236;27.986;2023-05-10T07:14:23;100671.41;;;13.04;100.00
10310;BME280;5200;43.236;27.986;2023-05-10T07:16:49;100634.81;;;13.19;100.00
10310;BME280;5200;43.236;27.986;2023-05-10T07:19:16;100643.47;;;13.50;100.00
10310;BME280;5200;43.236;27.986;2023-05-10T07:21:43;100675.06;;;13.62;100.00
10310;BME280;5200;43.236;27.986;2023-05-10T07:24:10;100637.06;;;13.04;100.00
10310;BME280;5200;43.236;27.986;2023-05-10T07:26:37;100685.59;;;13.03;100.00
10310;BME280;5200;43.236;27.986;2023-05-10T07:29:05;100658.25;;;12.64;100.00
10310;BME280;5200;43.236;27.986;2023-05-10T07:31:32;100688.81;;;12.57;100.00
10310;BME280;5200;43.236;27.986;2023-05-10T07:33:59;100683.94;;;12.21;100.00
10310;BME280;5200;43.236;27.986;2023-05-10T07:36:26;100680.13;;;12.35;100.00
10310;BME280;5200;43.236;27.986;2023-05-10T07:38:53;100665.31;;;12.54;100.00
10310;BME280;5200;43.236;27.986;2023-05-10T07:41:20;100677.13;;;12.59;100.00
10310;BME280;5200;43.236;27.986;2023-05-10T07:43:47;100682.41;;;12.59;100.00
10310;BME280;5200;43.236;27.986;2023-05-10T07:46:15;100688.38;;;13.11;100.00
10310;BME280;5200;43.236;27.986;2023-05-10T07:48:42;100687.84;;;13.37;100.00
10310;BME280;5200;43.236;27.986;2023-05-10T07:51:09;100671.41;;;13.24;100.00
10310;BME280;5200;43.236;27.986;2023-05-10T07:53:36;100689.97;;;13.43;100.00
10310;BME280;5200;43.236;27.986;2023-05-10T07:56:22;100688.13;;;13.63;100.00
10310;BME280;5200;43.236;27.986;2023-05-10T07:58:50;100696.47;;;13.68;99.33
10310;BME280;5200;43.236;27.986;2023-05-10T08:01:18;100685.91;;;13.78;100.00
10310;BME280;5200;43.236;27.986;2023-05-10T08:03:45;100684.38;;;13.56;100.00
10310;BME280;5200;43.236;27.986;2023-05-10T08:06:13;100669.78;;;13.42;100.00
10310;BME280;5200;43.236;27.986;2023-05-10T08:08:41;100667.81;;;13.54;100.00
10310;BME280;5200;43.236;27.986;2023-05-10T08:11:07;100658.94;;;13.45;100.00
10310;BME280;5200;43.236;27.986;2023-05-10T08:13:35;100681.97;;;13.24;100.00
10310;BME280;5200;43.236;27.986;2023-05-10T08:16:01;100683.06;;;13.11;100.00
10310;BME280;5200;43.236;27.986;2023-05-10T08:18:30;100693.84;;;13.39;100.00
10310;BME280;5200;43.236;27.986;2023-05-10T08:20:56;100660.03;;;13.33;100.00
10310;BME280;5200;43.236;27.986;2023-05-10T08:23:23;100701.06;;;13.57;100.00
10310;BME280;5200;43.236;27.986;2023-05-10T08:25:50;100701.75;;;13.59;100.00
10310;BME280;5200;43.236;27.986;2023-05-10T08:28:17;100702.75;;;13.38;100.00
10310;BME280;5200;43.236;27.986;2023-05-10T08:30:44;100706.44;;;13.06;100.00
10310;BME280;5200;43.236;27.986;2023-05-10T08:33:10;100705.69;;;12.85;100.00
10310;BME280;5200;43.236;27.986;2023-05-10T08:35:38;100702.47;;;12.72;100.00
10310;BME280;5200;43.236;27.986;2023-05-10T08:38:05;100703.00;;;12.65;100.00
10310;BME280;5200;43.236;27.986;2023-05-10T08:40:32;100708.00;;;12.28;100.00
10310;BME280;5200;43.236;27.986;2023-05-10T08:43:05;100717.81;;;12.16;100.00
10310;BME280;5200;43.236;27.986;2023-05-10T08:45:33;100682.66;;;12.16;100.00
10310;BME280;5200;43.236;27.986;2023-05-10T08:48:05;100716.47;;;12.62;100.00
10310;BME280;5200;43.236;27.986;2023-05-10T08:50:34;100713.31;;;12.68;100.00
10310;BME280;5200;43.236;27.986;2023-05-10T08:53:04;100734.00;;;13.23;100.00
10310;BME280;5200;43.236;27.986;2023-05-10T08:55:33;100701.75;;;13.20;100.00
10310;BME280;5200;43.236;27.986;2023-05-10T08:58:02;100727.69;;;12.95;100.00
10310;BME280;5200;43.236;27.986;2023-05-10T09:00:29;100725.03;;;12.95;100.00
10310;BME280;5200;43.236;27.986;2023-05-10T09:02:57;100721.38;;;12.77;100.00
10310;BME280;5200;43.236;27.986;2023-05-10T09:05:24;100686.72;;;12.60;100.00
10310;BME280;5200;43.236;27.986;2023-05-10T09:07:51;100707.38;;;12.86;100.00
10310;BME280;5200;43.236;27.986;2023-05-10T09:10:21;100698.97;;;13.31;100.00
10310;BME280;5200;43.236;27.986;2023-05-10T09:12:51;100724.50;;;13.01;100.00
10310;BME280;5200;43.236;27.986;2023-05-10T09:15:19;100717.94;;;12.86;100.00
10310;BME280;5200;43.236;27.986;2023-05-10T09:17:47;100699.22;;;13.08;100.00
10310;BME280;5200;43.236;27.986;2023-05-10T09:20:15;100709.50;;;13.11;100.00
10310;BME280;5200;43.236;27.986;2023-05-10T09:22:42;100710.78;;;13.27;100.00
10310;BME280;5200;43.236;27.986;2023-05-10T09:25:11;100701.22;;;12.76;100.00
10310;BME280;5200;43.236;27.986;2023-05-10T09:27:40;100709.78;;;13.08;100.00
10310;BME280;5200;43.236;27.986;2023-05-10T09:30:08;100686.31;;;13.44;98.26
10310;BME280;5200;43.236;27.986;2023-05-10T09:32:39;100690.06;;;13.71;96.35
10310;BME280;5200;43.236;27.986;2023-05-10T09:35:07;100708.63;;;14.08;95.65
10310;BME280;5200;43.236;27.986;2023-05-10T09:37:34;100709.53;;;13.89;95.70
10310;BME280;5200;43.236;27.986;2023-05-10T09:40:05;100705.91;;;13.71;93.01
10310;BME280;5200;43.236;27.986;2023-05-10T09:42:33;100696.19;;;13.42;94.23
10310;BME280;5200;43.236;27.986;2023-05-10T09:45:06;100721.19;;;13.19;97.45
10310;BME280;5200;43.236;27.986;2023-05-10T09:47:34;100719.25;;;13.21;98.85
10310;BME280;5200;43.236;27.986;2023-05-10T09:50:01;100686.59;;;13.22;97.44
10310;BME280;5200;43.236;27.986;2023-05-10T09:52:30;100702.88;;;13.46;97.94
10310;BME280;5200;43.236;27.986;2023-05-10T09:54:57;100720.81;;;13.33;100.00
10310;BME280;5200;43.236;27.986;2023-05-10T09:57:24;100691.69;;;12.94;100.00
10310;BME280;5200;43.236;27.986;2023-05-10T09:59:52;100721.50;;;12.65;100.00
10310;BME280;5200;43.236;27.986;2023-05-10T10:02:21;100717.84;;;12.57;100.00
10310;BME280;5200;43.236;27.986;2023-05-10T10:04:55;100718.91;;;12.85;100.00
10310;BME280;5200;43.236;27.986;2023-05-10T10:07:23;100693.88;;;12.39;100.00
10310;BME280;5200;43.236;27.986;2023-05-10T10:09:51;100712.78;;;12.75;100.00
10310;BME280;5200;43.236;27.986;2023-05-10T10:12:18;100705.50;;;12.67;100.00
10310;BME280;5200;43.236;27.986;2023-05-10T10:14:46;100708.97;;;13.18;100.00
10310;BME280;5200;43.236;27.986;2023-05-10T10:17:14;100693.16;;;13.27;97.96
10310;BME280;5200;43.236;27.986;2023-05-10T10:19:43;100721.53;;;12.85;95.66
10310;BME280;5200;43.236;27.986;2023-05-10T10:22:11;100697.66;;;12.46;100.00
10310;BME280;5200;43.236;27.986;2023-05-10T10:24:38;100719.84;;;12.74;100.00
10310;BME280;5200;43.236;27.986;2023-05-10T10:27:18;100711.38;;;12.71;96.63
10310;BME280;5200;43.236;27.986;2023-05-10T10:29:52;100725.00;;;12.76;100.00
10310;BME280;5200;43.236;27.986;2023-05-10T10:32:30;100728.88;;;12.81;100.00
10310;BME280;5200;43.236;27.986;2023-05-10T10:35:02;100703.69;;;13.18;100.00
10310;BME280;5200;43.236;27.986;2023-05-10T10:37:44;100726.22;;;13.22;99.17
10310;BME280;5200;43.236;27.986;2023-05-10T10:40:26;100710.50;;;13.20;97.77
10310;BME280;5200;43.236;27.986;2023-05-10T10:42:53;100723.41;;;13.14;94.43
10310;BME280;5200;43.236;27.986;2023-05-10T10:45:22;100724.19;;;12.85;95.66
10310;BME280;5200;43.236;27.986;2023-05-10T10:47:49;100691.56;;;12.55;98.54
10310;BME280;5200;43.236;27.986;2023-05-10T10:50:18;100686.41;;;12.94;96.99
10310;BME280;5200;43.236;27.986;2023-05-10T10:52:45;100717.72;;;13.08;94.45
10310;BME280;5200;43.236;27.986;2023-05-10T10:55:17;100702.69;;;13.19;97.78
10310;BME280;5200;43.236;27.986;2023-05-10T10:57:49;100722.09;;;13.29;96.05
10310;BME280;5200;43.236;27.986;2023-05-10T11:00:22;100722.28;;;13.06;95.57
10310;BME280;5200;43.236;27.986;2023-05-10T11:02:50;100726.44;;;12.99;98.12
10310;BME280;5200;43.236;27.986;2023-05-10T11:05:37;100720.00;;;12.73;100.00
10310;BME280;5200;43.236;27.986;2023-05-10T11:08:13;100734.25;;;13.10;97.97
10310;BME280;5200;43.236;27.986;2023-05-10T11:11:01;100728.03;;;13.31;97.30
10310;BME280;5200;43.236;27.986;2023-05-10T11:13:30;100719.56;;;13.37;96.80
10310;BME280;5200;43.236;27.986;2023-05-10T11:15:58;100723.00;;;13.08;97.58
10310;BME280;5200;43.236;27.986;2023-05-10T11:18:27;100693.31;;;12.85;99.31
10310;BME280;5200;43.236;27.986;2023-05-10T11:20:57;100725.63;;;12.99;99.01
10310;BME280;5200;43.236;27.986;2023-05-10T11:23:30;100724.09;;;13.06;100.00
10310;BME280;5200;43.236;27.986;2023-05-10T11:25:57;100697.41;;;13.19;97.25
10310;BME280;5200;43.236;27.986;2023-05-10T11:28:26;100716.22;;;13.35;97.99
10310;BME280;5200;43.236;27.986;2023-05-10T11:30:53;100700.53;;;12.74;93.89
10310;BME280;5200;43.236;27.986;2023-05-10T11:33:20;100719.91;;;12.53;98.62
10310;BME280;5200;43.236;27.986;2023-05-10T11:35:47;100719.78;;;12.55;99.16
10310;BME280;5200;43.236;27.986;2023-05-10T11:38:15;100702.00;;;12.57;97.63
10310;BME280;5200;43.236;27.986;2023-05-10T11:40:43;100690.06;;;12.62;95.23
10310;BME280;5200;43.236;27.986;2023-05-10T11:43:10;100730.78;;;12.69;99.67
10310;BME280;5200;43.236;27.986;2023-05-10T11:45:38;100728.34;;;12.78;98.05
10310;BME280;5200;43.236;27.986;2023-05-10T11:48:06;100718.16;;;12.63;100.00
10310;BME280;5200;43.236;27.986;2023-05-10T11:50:33;100704.28;;;12.71;98.71
10310;BME280;5200;43.236;27.986;2023-05-10T11:53:00;100709.94;;;12.66;97.79
10310;BME280;5200;43.236;27.986;2023-05-10T11:55:29;100721.66;;;12.74;95.85
10310;BME280;5200;43.236;27.986;2023-05-10T11:58:01;100718.66;;;12.57;98.12
10310;BME280;5200;43.236;27.986;2023-05-10T12:00:29;100714.19;;;12.48;99.56
10310;BME280;5200;43.236;27.986;2023-05-10T12:02:57;100700.16;;;12.47;100.00
10310;BME280;5200;43.236;27.986;2023-05-10T12:05:24;100678.16;;;12.27;100.00
10310;BME280;5200;43.236;27.986;2023-05-10T12:07:51;100705.09;;;12.31;100.00
10310;BME280;5200;43.236;27.986;2023-05-10T12:10:25;100679.81;;;12.29;100.00
10310;BME280;5200;43.236;27.986;2023-05-10T12:12:53;100687.78;;;12.48;97.87
10310;BME280;5200;43.236;27.986;2023-05-10T12:15:21;100715.16;;;12.47;100.00
10310;BME280;5200;43.236;27.986;2023-05-10T12:17:49;100712.88;;;12.33;99.96
10310;BME280;5200;43.236;27.986;2023-05-10T12:20:17;100681.34;;;12.31;100.00
10310;BME280;5200;43.236;27.986;2023-05-10T12:22:46;100682.59;;;12.37;100.00
10310;BME280;5200;43.236;27.986;2023-05-10T12:25:13;100707.41;;;12.55;100.00
10310;BME280;5200;43.236;27.986;2023-05-10T12:27:41;100685.91;;;12.29;100.00
10310;BME280;5200;43.236;27.986;2023-05-10T12:30:10;100693.03;;;12.38;100.00
10310;BME280;5200;43.236;27.986;2023-05-10T12:32:38;100677.28;;;12.27;98.83
10310;BME280;5200;43.236;27.986;2023-05-10T12:35:06;100650.47;;;11.91;100.00
10310;BME280;5200;43.236;27.986;2023-05-10T12:37:33;100661.13;;;11.90;98.37
10310;BME280;5200;43.236;27.986;2023-05-10T12:40:05;100662.53;;;11.73;99.08
10310;BME280;5200;43.236;27.986;2023-05-10T12:42:33;100664.63;;;11.90;100.00
10310;BME280;5200;43.236;27.986;2023-05-10T12:45:01;100659.09;;;11.93;100.00
10310;BME280;5200;43.236;27.986;2023-05-10T12:47:29;100664.28;;;11.83;100.00
10310;BME280;5200;43.236;27.986;2023-05-10T12:49:56;100657.31;;;11.82;100.00
10310;BME280;5200;43.236;27.986;2023-05-10T12:52:23;100677.72;;;12.01;100.00